createdAt,value
2018-07-10T00:04:00.543Z,98258.25
2018-07-10T00:06:50.490Z,98247.67
2018-07-10T00:09:57.154Z,98245.94
2018-07-10T00:12:26.391Z,98247.55
2018-07-10T00:14:55.655Z,98250.19
2018-07-10T00:17:25.630Z,98256.81
2018-07-10T00:19:54.851Z,98252.82
2018-07-10T00:22:24.134Z,98244.52
2018-07-10T00:24:53.774Z,98244.73
2018-07-10T00:27:23.117Z,98233.34
2018-07-10T00:29:52.322Z,98228.61
2018-07-10T00:32:21.482Z,98215.25
2018-07-10T00:34:50.837Z,98214.23
2018-07-10T00:37:19.974Z,98219.48
2018-07-10T00:39:49.955Z,98218.35
2018-07-10T00:42:19.130Z,98214.95
2018-07-10T00:44:48.207Z,98220.33
2018-07-10T00:47:17.306Z,98209.49
2018-07-10T00:49:46.750Z,98209.02
2018-07-10T00:52:30.322Z,98208.16
2018-07-10T00:55:00.310Z,98209.72
2018-07-10T00:57:30.601Z,98211.78
2018-07-10T01:00:03.499Z,98206.58
2018-07-10T01:02:32.636Z,98201.85
2018-07-10T01:05:01.782Z,98202.51
2018-07-10T01:07:30.996Z,98209.61
2018-07-10T01:10:00.128Z,98209.39
2018-07-10T01:12:29.227Z,98211.92
2018-07-10T01:14:58.350Z,98212.61
2018-07-10T01:17:27.709Z,98208.82
2018-07-10T01:19:57.008Z,98201.95
2018-07-10T01:22:26.341Z,98204.70
2018-07-10T01:24:55.874Z,98203.58
2018-07-10T01:27:25.343Z,98198.17
2018-07-10T01:29:54.726Z,98199.22
2018-07-10T01:32:24.826Z,98195.23
2018-07-10T01:34:54.185Z,98195.48
2018-07-10T01:37:23.350Z,98195.06
2018-07-10T01:39:52.500Z,98195.73
2018-07-10T01:42:21.610Z,98198.97
2018-07-10T01:44:50.728Z,98194.73
2018-07-10T01:47:19.820Z,98190.73
2018-07-10T01:49:49.102Z,98191.64
2018-07-10T01:52:18.339Z,98192.09
2018-07-10T01:54:47.437Z,98195.66
2018-07-10T01:57:17.214Z,98199.84
2018-07-10T01:59:46.467Z,98204.28
2018-07-10T02:02:15.562Z,98189.95
2018-07-10T02:04:44.836Z,98183.71
2018-07-10T02:07:14.000Z,98183.98
2018-07-10T02:09:43.166Z,98180.73
2018-07-10T02:12:12.342Z,98187.33
2018-07-10T02:14:46.662Z,98186.77
2018-07-10T02:17:16.635Z,98184.00
2018-07-10T02:19:45.706Z,98178.81
2018-07-10T02:22:14.834Z,98173.22
2018-07-10T02:24:43.967Z,98173.08
2018-07-10T02:27:13.806Z,98172.94
2018-07-10T02:29:43.910Z,98164.85
2018-07-10T02:32:12.990Z,98166.83
2018-07-10T02:34:42.107Z,98158.48
2018-07-10T02:37:11.252Z,98154.72
2018-07-10T02:39:40.416Z,98157.64
2018-07-10T02:42:09.543Z,98156.44
2018-07-10T02:44:39.602Z,98158.06
2018-07-10T02:47:08.723Z,98154.27
2018-07-10T02:49:37.882Z,98157.59
2018-07-10T02:52:08.023Z,98148.53
2018-07-10T02:54:42.970Z,98148.59
2018-07-10T02:57:13.249Z,98147.30
2018-07-10T02:59:44.771Z,98146.61
2018-07-10T03:02:23.231Z,98145.06
2018-07-10T03:04:58.137Z,98137.53
2018-07-10T03:07:29.958Z,98138.04
2018-07-10T03:10:00.570Z,98136.19
2018-07-10T03:12:37.296Z,98135.02
2018-07-10T03:15:14.329Z,98143.45
2018-07-10T03:17:43.678Z,98141.53
2018-07-10T03:20:13.098Z,98143.31
2018-07-10T03:22:42.198Z,98150.66
2018-07-10T03:25:11.339Z,98154.59
2018-07-10T03:27:40.475Z,98157.16
2018-07-10T03:30:09.605Z,98159.59
2018-07-10T03:32:39.553Z,98161.16
2018-07-10T03:35:09.100Z,98162.68
2018-07-10T03:37:38.235Z,98157.16
2018-07-10T03:40:07.387Z,98162.93
2018-07-10T03:42:36.559Z,98157.08
2018-07-10T03:45:05.758Z,98160.75
2018-07-10T03:47:34.887Z,98160.69
2018-07-10T03:50:04.009Z,98159.08
2018-07-10T03:52:35.485Z,98160.59
2018-07-10T03:55:10.738Z,98166.15
2018-07-10T03:57:39.887Z,98155.55
2018-07-10T04:00:13.042Z,98160.85
2018-07-10T04:02:51.594Z,98162.54
2018-07-10T04:05:23.727Z,98154.97
2018-07-10T04:07:56.147Z,98148.09
2018-07-10T04:10:37.439Z,98152.52
2018-07-10T04:13:11.779Z,98152.62
2018-07-10T04:15:43.150Z,98154.50
2018-07-10T04:18:17.043Z,98154.02
2018-07-10T04:21:25.083Z,98148.69
2018-07-10T04:24:12.669Z,98152.70
2018-07-10T04:27:26.555Z,98149.37
2018-07-10T04:30:11.015Z,98153.17
2018-07-10T04:32:42.158Z,98151.38
2018-07-10T04:35:14.553Z,98157.69
2018-07-10T04:37:49.554Z,98149.52
2018-07-10T04:40:20.462Z,98148.58
2018-07-10T04:42:57.199Z,98155.34
2018-07-10T04:45:41.265Z,98155.96
2018-07-10T04:48:30.610Z,98154.38
2018-07-10T04:51:11.573Z,98154.09
2018-07-10T04:53:44.035Z,98157.05
2018-07-10T04:56:14.965Z,98159.08
2018-07-10T04:58:48.906Z,98149.61
2018-07-10T05:01:18.627Z,98156.47
2018-07-10T05:03:48.576Z,98151.16
2018-07-10T05:06:17.954Z,98141.80
2018-07-10T05:08:48.179Z,98145.92
2018-07-10T05:11:17.323Z,98151.11
2018-07-10T05:13:46.514Z,98149.36
2018-07-10T05:16:16.471Z,98152.49
2018-07-10T05:18:45.550Z,98150.86
2018-07-10T05:21:16.530Z,98149.05
2018-07-10T05:23:46.980Z,98143.67
2018-07-10T05:26:18.073Z,98140.95
2018-07-10T05:28:51.462Z,98139.08
2018-07-10T05:31:20.850Z,98131.95
2018-07-10T05:33:52.215Z,98143.50
2018-07-10T05:36:24.038Z,98148.48
2018-07-10T05:39:00.888Z,98141.31
2018-07-10T05:41:30.366Z,98138.25
2018-07-10T05:43:59.789Z,98135.73
2018-07-10T05:46:29.121Z,98138.83
2018-07-10T05:49:05.867Z,98138.81
2018-07-10T05:51:48.299Z,98143.19
2018-07-10T05:54:17.837Z,98144.25
2018-07-10T05:56:47.954Z,98149.65
2018-07-10T05:59:17.922Z,98147.98
2018-07-10T06:01:47.691Z,98152.47
2018-07-10T06:04:18.210Z,98143.52
2018-07-10T06:06:48.098Z,98143.09
2018-07-10T06:09:18.662Z,98143.59
2018-07-10T06:11:48.292Z,98141.60
2018-07-10T06:14:18.138Z,98138.83
2018-07-10T06:16:48.198Z,98146.14
2018-07-10T06:19:17.509Z,98138.86
2018-07-10T06:21:48.771Z,98141.42
2018-07-10T06:24:26.497Z,98136.51
2018-07-10T06:27:04.227Z,98142.75
2018-07-10T06:29:50.782Z,98136.02
2018-07-10T06:32:22.122Z,98140.16
2018-07-10T06:35:00.052Z,98143.28
2018-07-10T06:37:34.027Z,98132.61
2018-07-10T06:40:06.925Z,98142.44
2018-07-10T06:43:05.063Z,98143.29
2018-07-10T06:45:34.175Z,98143.52
2018-07-10T06:48:03.960Z,98140.92
2018-07-10T06:50:36.871Z,98138.55
2018-07-10T06:53:06.201Z,98132.65
2018-07-10T06:55:59.062Z,98127.38
2018-07-10T06:58:33.270Z,98122.48
2018-07-10T07:01:03.089Z,98125.85
2018-07-10T07:03:32.242Z,98124.47
2018-07-10T07:06:02.455Z,98123.58
2018-07-10T07:08:31.853Z,98124.25
2018-07-10T07:11:00.940Z,98122.97
2018-07-10T07:13:30.114Z,98124.73
2018-07-10T07:15:59.271Z,98123.20
2018-07-10T07:18:28.365Z,98116.52
2018-07-10T07:20:57.705Z,98124.76
2018-07-10T07:23:27.334Z,98123.89
2018-07-10T07:25:56.478Z,98123.64
2018-07-10T07:28:25.638Z,98137.48
2018-07-10T07:30:55.494Z,98130.50
2018-07-10T07:33:24.623Z,98125.55
2018-07-10T07:35:53.760Z,98133.13
2018-07-10T07:38:23.276Z,98127.67
2018-07-10T07:40:53.318Z,98131.13
2018-07-10T07:43:22.439Z,98123.66
2018-07-10T07:45:51.878Z,98126.73
2018-07-10T07:48:21.771Z,98125.02
2018-07-10T07:50:51.626Z,98131.42
2018-07-10T07:53:21.463Z,98128.95
2018-07-10T07:55:51.454Z,98128.91
2018-07-10T07:58:20.862Z,98121.39
2018-07-10T08:00:50.494Z,98121.23
2018-07-10T08:03:20.406Z,98128.16
2018-07-10T08:05:50.355Z,98125.11
2018-07-10T08:08:20.186Z,98120.46
2018-07-10T08:10:49.681Z,98124.23
2018-07-10T08:13:19.555Z,98127.39
2018-07-10T08:15:49.078Z,98133.63
2018-07-10T08:18:18.187Z,98136.75
2018-07-10T08:20:48.058Z,98133.41
2018-07-10T08:23:17.166Z,98127.31
2018-07-10T08:25:46.447Z,98130.41
2018-07-10T08:28:16.207Z,98133.64
2018-07-10T08:30:46.115Z,98125.98
2018-07-10T08:33:15.238Z,98126.84
2018-07-10T08:35:44.702Z,98123.55
2018-07-10T08:38:29.662Z,98124.61
2018-07-10T08:40:58.895Z,98119.59
2018-07-10T08:43:27.995Z,98117.03
2018-07-10T08:45:57.173Z,98118.77
2018-07-10T08:48:26.828Z,98119.55
2018-07-10T08:50:56.183Z,98121.34
2018-07-10T08:53:25.407Z,98116.30
2018-07-10T08:55:54.540Z,98115.78
2018-07-10T08:58:24.090Z,98118.50
2018-07-10T09:00:53.271Z,98107.65
2018-07-10T09:03:22.735Z,98104.78
2018-07-10T09:05:51.867Z,98099.34
2018-07-10T09:08:22.062Z,98103.74
2018-07-10T09:10:51.194Z,98094.66
2018-07-10T09:13:20.369Z,98096.57
2018-07-10T09:15:49.577Z,98093.13
2018-07-10T09:18:19.405Z,98088.13
2018-07-10T09:20:51.550Z,98082.19
2018-07-10T09:23:21.626Z,98075.93
2018-07-10T09:25:56.494Z,98075.66
2018-07-10T09:28:28.222Z,98070.30
2018-07-10T09:30:57.339Z,98064.52
2018-07-10T09:33:26.978Z,98057.84
2018-07-10T09:35:56.355Z,98056.99
2018-07-10T09:38:25.514Z,98060.77
2018-07-10T09:40:55.318Z,98058.50
2018-07-10T09:43:25.890Z,98059.34
2018-07-10T09:45:55.648Z,98059.39
2018-07-10T09:48:24.854Z,98058.64
2018-07-10T09:50:54.014Z,98057.53
2018-07-10T09:53:23.271Z,98062.00
2018-07-10T09:55:52.495Z,98066.03
2018-07-10T09:58:23.215Z,98073.07
2018-07-10T10:01:00.613Z,98078.42
2018-07-10T10:03:29.719Z,98076.49
2018-07-10T10:05:59.222Z,98077.74
2018-07-10T10:08:28.684Z,98080.09
2018-07-10T10:10:58.325Z,98071.99
2018-07-10T10:13:28.098Z,98078.09
2018-07-10T10:15:57.618Z,98072.97
2018-07-10T10:18:28.220Z,98072.02
2018-07-10T10:20:57.387Z,98066.86
2018-07-10T10:23:26.947Z,98069.23
2018-07-10T10:25:56.195Z,98071.96
2018-07-10T10:28:26.594Z,98062.81
2018-07-10T10:30:55.808Z,98052.80
2018-07-10T10:33:25.011Z,98060.22
2018-07-10T10:35:54.186Z,98052.84
2018-07-10T10:38:23.983Z,98059.38
2018-07-10T10:40:53.613Z,98056.12
2018-07-10T10:43:23.602Z,98048.05
2018-07-10T10:45:52.702Z,98055.34
2018-07-10T10:48:21.834Z,98050.39
2018-07-10T10:50:51.783Z,98054.05
2018-07-10T10:53:21.882Z,98052.23
2018-07-10T10:55:51.922Z,98054.55
2018-07-10T10:58:22.934Z,98060.88
2018-07-10T11:00:52.410Z,98058.95
2018-07-10T11:03:21.565Z,98069.59
2018-07-10T11:05:50.662Z,98054.71
2018-07-10T11:08:22.742Z,98057.49
2018-07-10T11:10:52.542Z,98074.41
2018-07-10T11:13:23.288Z,98069.14
2018-07-10T11:15:52.830Z,98073.23
2018-07-10T11:18:34.642Z,98071.68
2018-07-10T11:21:13.644Z,98080.44
2018-07-10T11:23:53.395Z,98078.76
2018-07-10T11:26:46.840Z,98086.91
2018-07-10T11:29:16.520Z,98093.23
2018-07-10T11:31:46.430Z,98100.47
2018-07-10T11:34:15.343Z,98093.80
2018-07-10T11:36:44.545Z,98097.11
2018-07-10T11:39:14.530Z,98089.16
2018-07-10T11:41:46.813Z,98094.68
2018-07-10T11:44:15.931Z,98088.87
2018-07-10T11:46:45.035Z,98094.98
2018-07-10T11:49:14.242Z,98100.84
2018-07-10T11:51:44.043Z,98106.98
2018-07-10T11:54:13.119Z,98107.04
2018-07-10T11:56:42.273Z,98110.23
2018-07-10T11:59:11.364Z,98111.04
2018-07-10T12:01:40.495Z,98099.16
2018-07-10T12:04:09.530Z,98108.97
2018-07-10T12:06:47.761Z,98108.96
2018-07-10T12:09:17.706Z,98110.27
2018-07-10T12:11:47.666Z,98104.27
2018-07-10T12:14:17.322Z,98104.09
2018-07-10T12:16:47.402Z,98104.34
2018-07-10T12:19:17.198Z,98097.02
2018-07-10T12:21:46.581Z,98097.20
2018-07-10T12:24:16.928Z,98093.05
2018-07-10T12:26:46.082Z,98087.67
2018-07-10T12:29:15.207Z,98087.72
2018-07-10T12:31:44.833Z,98066.81
2018-07-10T12:34:13.959Z,98069.89
2018-07-10T12:36:43.260Z,98073.98
2018-07-10T12:39:12.461Z,98057.59
2018-07-10T12:41:41.600Z,98065.82
2018-07-10T12:44:10.849Z,98070.69
2018-07-10T12:46:40.021Z,98072.44
2018-07-10T12:49:09.201Z,98080.55
2018-07-10T12:51:38.395Z,98079.17
2018-07-10T12:54:07.798Z,98074.80
2018-07-10T12:56:37.747Z,98084.41
2018-07-10T12:59:07.342Z,98082.03
2018-07-10T13:01:36.762Z,98076.22
2018-07-10T13:04:06.123Z,98076.30
2018-07-10T13:06:35.573Z,98091.68
2018-07-10T13:09:05.046Z,98083.81
2018-07-10T13:11:35.479Z,98088.80
2018-07-10T13:14:04.610Z,98070.31
2018-07-10T13:16:34.623Z,98075.77
2018-07-10T13:19:04.904Z,98067.78
2018-07-10T13:21:34.095Z,98065.45
2018-07-10T13:24:03.218Z,98052.55
2018-07-10T13:26:32.335Z,98052.47
2018-07-10T13:29:01.511Z,98054.66
2018-07-10T13:31:30.646Z,98052.29
2018-07-10T13:33:59.726Z,98061.19
2018-07-10T13:36:28.990Z,98047.73
2018-07-10T13:39:00.148Z,98061.72
2018-07-10T13:41:30.422Z,98058.95
2018-07-10T13:44:00.663Z,98051.93
2018-07-10T13:46:29.954Z,98042.84
2018-07-10T13:48:59.361Z,98047.22
2018-07-10T13:51:28.499Z,98047.42
2018-07-10T13:53:57.602Z,98042.91
2018-07-10T13:56:26.698Z,98043.19
2018-07-10T13:58:56.611Z,98037.74
2018-07-10T14:01:25.716Z,98034.80
2018-07-10T14:03:56.131Z,98031.03
2018-07-10T14:06:25.746Z,98033.70
2018-07-10T14:08:54.871Z,98029.75
2018-07-10T14:11:24.028Z,98028.49
2018-07-10T14:13:53.158Z,98021.14
2018-07-10T14:16:22.509Z,98025.64
2018-07-10T14:18:55.383Z,98029.28
2018-07-10T14:21:25.177Z,98034.53
2018-07-10T14:23:54.598Z,98027.39
2018-07-10T14:26:23.704Z,98024.69
2018-07-10T14:28:52.978Z,98020.95
2018-07-10T14:31:22.215Z,98020.37
2018-07-10T14:33:51.364Z,98017.98
2018-07-10T14:36:20.454Z,98028.36
2018-07-10T14:38:49.553Z,98031.34
2018-07-10T14:41:18.679Z,98024.12
2018-07-10T14:43:48.383Z,98026.26
2018-07-10T14:46:24.343Z,98024.64
2018-07-10T14:48:57.699Z,98023.74
2018-07-10T14:51:38.003Z,98025.70
2018-07-10T14:54:07.347Z,98017.64
2018-07-10T14:56:36.650Z,98021.17
2018-07-10T14:59:06.256Z,98023.62
2018-07-10T15:01:35.523Z,98030.36
2018-07-10T15:04:04.821Z,98025.23
2018-07-10T15:06:34.267Z,98029.09
2018-07-10T15:09:05.496Z,98023.74
2018-07-10T15:11:34.870Z,98027.87
2018-07-10T15:14:09.226Z,98029.66
2018-07-10T15:16:44.135Z,98026.55
2018-07-10T15:19:15.375Z,98030.45
2018-07-10T15:21:45.032Z,98025.37
2018-07-10T15:24:15.451Z,98031.16
2018-07-10T15:26:44.969Z,98025.81
2018-07-10T15:29:20.151Z,98019.56
2018-07-10T15:31:49.468Z,98010.93
2018-07-10T15:34:18.827Z,98009.20
2018-07-10T15:36:48.115Z,98014.84
2018-07-10T15:39:17.747Z,98004.32
2018-07-10T15:41:47.433Z,98004.28
2018-07-10T15:44:16.622Z,98005.75
2018-07-10T15:46:46.280Z,98007.91
2018-07-10T15:49:15.820Z,98004.24
2018-07-10T15:51:45.390Z,98005.13
2018-07-10T15:54:14.579Z,97994.91
2018-07-10T15:56:43.669Z,97989.53
2018-07-10T15:59:12.863Z,97996.89
2018-07-10T16:01:41.991Z,97993.38
2018-07-10T16:04:11.111Z,97979.31
2018-07-10T16:06:40.312Z,97984.53
2018-07-10T16:09:18.969Z,97984.11
2018-07-10T16:11:50.303Z,97974.60
2018-07-10T16:14:19.468Z,97974.41
2018-07-10T16:16:48.735Z,97975.51
2018-07-10T16:19:24.949Z,97977.97
2018-07-10T16:22:00.101Z,97970.51
2018-07-10T16:24:34.350Z,97965.01
2018-07-10T16:27:04.108Z,97970.48
2018-07-10T16:29:33.202Z,97979.72
2018-07-10T16:32:05.974Z,97982.33
2018-07-10T16:34:35.182Z,97974.80
2018-07-10T16:37:04.599Z,97976.80
2018-07-10T16:39:34.394Z,97980.30
2018-07-10T16:42:08.642Z,97993.02
2018-07-10T16:44:39.166Z,97980.65
2018-07-10T16:47:13.686Z,97983.32
2018-07-10T16:49:45.883Z,97974.55
2018-07-10T16:52:22.002Z,97981.66
2018-07-10T16:54:52.626Z,97988.28
2018-07-10T16:57:21.728Z,97988.80
2018-07-10T16:59:50.815Z,97989.68
2018-07-10T17:02:20.191Z,97992.98
2018-07-10T17:04:49.868Z,97996.72
2018-07-10T17:07:19.130Z,97995.41
2018-07-10T17:09:48.287Z,97995.31
2018-07-10T17:12:18.226Z,98003.42
2018-07-10T17:15:00.167Z,98003.47
2018-07-10T17:17:29.930Z,98003.48
2018-07-10T17:19:59.520Z,98003.73
2018-07-10T17:22:29.054Z,98007.88
2018-07-10T17:24:58.511Z,98011.23
2018-07-10T17:27:32.970Z,98004.77
2018-07-10T17:30:03.387Z,98008.66
2018-07-10T17:32:33.654Z,98002.19
2018-07-10T17:35:03.591Z,98001.70
2018-07-10T17:37:37.414Z,97998.35
2018-07-10T17:40:06.642Z,97999.73
2018-07-10T17:42:36.394Z,98000.97
2018-07-10T17:45:06.539Z,98009.55
2018-07-10T17:47:35.665Z,98015.27
2018-07-10T17:50:04.986Z,98019.08
2018-07-10T17:52:35.044Z,98016.70
2018-07-10T17:55:04.758Z,98008.16
2018-07-10T17:57:35.110Z,98008.94
2018-07-10T18:00:06.110Z,98006.80
2018-07-10T18:02:35.376Z,98014.58
2018-07-10T18:05:04.677Z,98023.07
2018-07-10T18:07:34.372Z,98025.80
2018-07-10T18:10:03.623Z,98023.39
2018-07-10T18:12:32.775Z,98025.78
2018-07-10T18:15:02.013Z,98030.45
2018-07-10T18:17:31.066Z,98031.48
2018-07-10T18:20:00.221Z,98038.08
2018-07-10T18:22:29.791Z,98038.59
2018-07-10T18:24:59.015Z,98034.16
2018-07-10T18:27:28.347Z,98033.73
2018-07-10T18:29:57.939Z,98030.45
2018-07-10T18:32:27.310Z,98040.20
2018-07-10T18:34:57.990Z,98031.47
2018-07-10T18:37:27.635Z,98031.19
2018-07-10T18:39:56.875Z,98035.03
2018-07-10T18:42:26.894Z,98033.73
2018-07-10T18:44:56.866Z,98035.73
2018-07-10T18:47:26.015Z,98031.66
2018-07-10T18:49:56.515Z,98037.21
2018-07-10T18:52:28.591Z,98038.84
2018-07-10T18:55:02.093Z,98040.92
2018-07-10T18:57:59.122Z,98043.25
2018-07-10T19:00:40.116Z,98046.13
2018-07-10T19:03:12.047Z,98048.33
2018-07-10T19:05:45.455Z,98050.91
2018-07-10T19:08:14.930Z,98048.75
2018-07-10T19:10:46.062Z,98049.13
2018-07-10T19:13:16.227Z,98046.36
2018-07-10T19:15:46.773Z,98056.82
2018-07-10T19:18:16.883Z,98055.34
2018-07-10T19:20:54.703Z,98063.18
2018-07-10T19:23:37.283Z,98060.64
2018-07-10T19:26:07.700Z,98063.80
2018-07-10T19:28:37.251Z,98065.94
2018-07-10T19:31:17.867Z,98064.00
2018-07-10T19:33:52.869Z,98069.23
2018-07-10T19:36:22.577Z,98075.47
2018-07-10T19:38:52.366Z,98067.50
2018-07-10T19:41:22.687Z,98075.38
2018-07-10T19:43:54.379Z,98078.38
2018-07-10T19:46:23.830Z,98080.28
2018-07-10T19:48:56.033Z,98082.67
2018-07-10T19:51:27.061Z,98083.95
2018-07-10T19:54:05.816Z,98086.35
2018-07-10T19:56:36.598Z,98084.61
2018-07-10T19:59:07.803Z,98081.43
2018-07-10T20:01:51.482Z,98078.67
2018-07-10T20:04:29.909Z,98083.81
2018-07-10T20:07:17.283Z,98080.52
2018-07-10T20:09:53.051Z,98079.44
2018-07-10T20:12:41.593Z,98084.77
2018-07-10T20:15:27.963Z,98091.14
2018-07-10T20:18:10.311Z,98088.13
2018-07-10T20:20:45.035Z,98088.90
2018-07-10T20:24:34.297Z,98089.92
2018-07-10T20:29:18.826Z,98093.27
2018-07-10T20:32:05.267Z,98086.36
2018-07-10T20:34:46.113Z,98084.20
2018-07-10T20:37:21.868Z,98097.49
2018-07-10T20:39:51.384Z,98092.67
2018-07-10T20:42:20.544Z,98083.47
2018-07-10T20:44:58.983Z,98083.08
2018-07-10T20:47:39.958Z,98080.02
2018-07-10T20:50:09.348Z,98083.40
2018-07-10T20:53:07.771Z,98084.30
2018-07-10T20:55:50.315Z,98088.92
2018-07-10T20:58:22.449Z,98088.39
2018-07-10T21:01:02.252Z,98088.14
2018-07-10T21:03:49.872Z,98088.15
2018-07-10T21:06:34.118Z,98093.59
2018-07-10T21:09:12.703Z,98084.71
2018-07-10T21:12:24.887Z,98090.17
2018-07-10T21:15:08.046Z,98091.90
2018-07-10T21:17:54.215Z,98091.08
2018-07-10T21:22:39.479Z,98093.64
2018-07-10T21:25:27.214Z,98098.77
2018-07-10T21:28:08.340Z,98091.28
2018-07-10T21:30:44.938Z,98091.61
2018-07-10T21:33:55.611Z,98091.28
2018-07-10T21:36:35.792Z,98086.73
2018-07-10T21:39:13.898Z,98086.48
2018-07-10T21:42:03.842Z,98085.03
2018-07-10T21:46:52.262Z,98080.75
2018-07-10T21:49:39.315Z,98083.72
2018-07-10T21:52:08.702Z,98081.98
2018-07-10T21:54:37.843Z,98083.77
2018-07-10T21:57:06.939Z,98077.94
2018-07-10T21:59:39.686Z,98079.14
2018-07-10T22:02:09.546Z,98079.84
2018-07-10T22:04:40.324Z,98083.39
2018-07-10T22:07:14.706Z,98078.73
2018-07-10T22:09:45.277Z,98080.58
2018-07-10T22:12:18.021Z,98081.80
2018-07-10T22:14:47.222Z,98083.88
2018-07-10T22:17:19.952Z,98072.66
2018-07-10T22:19:52.296Z,98075.36
2018-07-10T22:22:28.270Z,98078.24
2018-07-10T22:24:58.077Z,98078.13
2018-07-10T22:27:27.942Z,98081.20
2018-07-10T22:30:05.071Z,98080.64
2018-07-10T22:32:43.263Z,98075.95
2018-07-10T22:35:14.466Z,98075.13
2018-07-10T22:37:43.422Z,98073.30
2018-07-10T22:40:12.531Z,98071.06
2018-07-10T22:42:41.671Z,98076.59
2018-07-10T22:45:11.022Z,98074.80
2018-07-10T22:47:41.914Z,98077.80
2018-07-10T22:50:20.702Z,98071.80
2018-07-10T22:52:58.487Z,98068.22
2018-07-10T22:55:30.406Z,98062.77
2018-07-10T22:58:01.654Z,98060.21
2018-07-10T23:00:33.462Z,98066.77
2018-07-10T23:03:25.275Z,98061.88
2018-07-10T23:05:55.175Z,98066.38
2018-07-10T23:08:35.812Z,98063.59
2018-07-10T23:11:07.859Z,98064.80
2018-07-10T23:13:38.072Z,98065.53
2018-07-10T23:16:07.254Z,98065.97
2018-07-10T23:18:36.392Z,98062.97
2018-07-10T23:21:05.576Z,98067.75
2018-07-10T23:23:34.723Z,98062.42
2018-07-10T23:26:03.855Z,98058.84
2018-07-10T23:28:33.783Z,98054.72
2018-07-10T23:31:04.502Z,98053.14
2018-07-10T23:33:33.777Z,98047.23
2018-07-10T23:36:05.091Z,98049.72
2018-07-10T23:38:45.326Z,98041.95
2018-07-10T23:41:27.090Z,98046.16
2018-07-10T23:43:57.143Z,98046.30
2018-07-10T23:46:33.510Z,98044.72
2018-07-10T23:49:11.598Z,98038.89
2018-07-10T23:51:57.692Z,98038.89
2018-07-10T23:54:27.048Z,98045.49
2018-07-10T23:56:56.458Z,98046.39
2018-07-10T23:59:25.864Z,98045.26
